Time;durP1;ratioP1;P1;durP2;ratioP2;P2;SDS_P1;SDS_P2;PMS_P1;PMS_P2;Temp;Humidity;BMP_temperature;BMP_pressure;BME280_temperature;BME280_humidity;BME280_pressure;Samples;Min_cycle;Max_cycle;Signal;HPM_P1;HPM_P2
2022/06/09 00:00:35;;;;;;;;;;;15.50;99.90;;;;;;5086438;27;36253;-59
2022/06/09 00:03:05;;;;;;;;;;;15.50;99.90;;;;;;5086845;27;38279;-59
2022/06/09 00:05:34;;;;;;;;;;;15.50;99.90;;;;;;5086310;27;38608;-58
2022/06/09 00:08:04;;;;;;;;;;;15.50;99.90;;;;;;5088013;27;38301;-58
2022/06/09 00:10:33;;;;;;;;;;;15.50;99.90;;;;;;5087501;27;37459;-59
2022/06/09 00:13:01;;;;;;;;;;;15.50;99.90;;;;;;5086605;27;38137;-59
2022/06/09 00:15:28;;;;;;;;;;;15.50;99.90;;;;;;5086757;28;36479;-58
2022/06/09 00:17:55;;;;;;;;;;;15.50;99.90;;;;;;5086923;27;37068;-59
2022/06/09 00:20:22;;;;;;;;;;;15.50;99.90;;;;;;5087560;27;36509;-59
2022/06/09 00:22:50;;;;;;;;;;;15.50;99.90;;;;;;5087048;27;38105;-59
2022/06/09 00:25:18;;;;;;;;;;;15.50;99.90;;;;;;5086172;27;37732;-59
2022/06/09 00:27:45;;;;;;;;;;;15.50;99.90;;;;;;5087228;27;37604;-59
2022/06/09 00:30:14;;;;;;;;;;;15.50;99.90;;;;;;5087251;27;37727;-59
2022/06/09 00:32:41;;;;;;;;;;;15.50;99.90;;;;;;5087092;28;36567;-59
2022/06/09 00:35:09;;;;;;;;;;;15.40;99.90;;;;;;5086521;27;37663;-58
2022/06/09 00:37:36;;;;;;;;;;;15.40;99.90;;;;;;5086473;27;36722;-58
2022/06/09 00:40:05;;;;;;;;;;;15.50;99.90;;;;;;5085878;27;36941;-58
2022/06/09 00:42:33;;;;;;;;;;;15.40;99.90;;;;;;5083897;27;36657;-59
2022/06/09 00:45:15;;;;;;;;;;;15.40;99.90;;;;;;5086085;27;36495;-58
2022/06/09 00:47:42;;;;;;;;;;;15.40;99.90;;;;;;5085033;27;38925;-58
2022/06/09 00:50:13;;;;;;;;;;;15.40;99.90;;;;;;5085645;27;35160;-58
2022/06/09 00:52:43;;;;;;;;;;;15.40;99.90;;;;;;5086354;28;38211;-59
2022/06/09 00:55:16;;;;;;;;;;;15.40;99.90;;;;;;5085998;27;37603;-58
2022/06/09 00:57:46;;;;;;;;;;;15.40;99.90;;;;;;5086576;28;37867;-59
2022/06/09 01:00:16;;;;;;;;;;;15.40;99.90;;;;;;5087009;27;37121;-59
2022/06/09 01:02:44;;;;;;;;;;;15.40;99.90;;;;;;5087101;27;36651;-58
2022/06/09 01:05:12;;;;;;;;;;;15.40;99.90;;;;;;5084881;27;38643;-59
2022/06/09 01:07:42;;;;;;;;;;;15.30;99.90;;;;;;5086096;27;36812;-59
2022/06/09 01:10:09;;;;;;;;;;;15.30;99.90;;;;;;5085145;27;35177;-59
2022/06/09 01:12:39;;;;;;;;;;;15.30;99.90;;;;;;5085655;27;37680;-59
2022/06/09 01:15:07;;;;;;;;;;;15.30;99.90;;;;;;5085776;28;36055;-59
2022/06/09 01:17:46;;;;;;;;;;;15.40;99.90;;;;;;5086193;27;36384;-58
2022/06/09 01:20:20;;;;;;;;;;;15.30;99.90;;;;;;5086785;27;36540;-58
2022/06/09 01:22:54;;;;;;;;;;;15.30;99.90;;;;;;5086125;27;38656;-59
2022/06/09 01:25:44;;;;;;;;;;;15.30;99.90;;;;;;5085646;27;38064;-58
2022/06/09 01:28:25;;;;;;;;;;;15.30;99.90;;;;;;5085559;27;37269;-59
2022/06/09 01:30:56;;;;;;;;;;;15.20;99.90;;;;;;5084694;27;36559;-58
2022/06/09 01:33:26;;;;;;;;;;;15.20;99.90;;;;;;5085048;27;36598;-59
2022/06/09 01:35:57;;;;;;;;;;;15.20;99.90;;;;;;5084150;27;38605;-59
2022/06/09 01:38:24;;;;;;;;;;;15.20;99.90;;;;;;5086606;28;37321;-59
2022/06/09 01:40:51;;;;;;;;;;;15.20;99.90;;;;;;5085741;27;35910;-59
2022/06/09 01:43:18;;;;;;;;;;;15.20;99.90;;;;;;5085789;27;39317;-59
2022/06/09 01:45:50;;;;;;;;;;;15.20;99.90;;;;;;5084736;27;37498;-59
2022/06/09 01:48:19;;;;;;;;;;;15.30;99.90;;;;;;5086642;27;37245;-58
2022/06/09 01:50:50;;;;;;;;;;;15.20;99.90;;;;;;5085085;27;36559;-59
2022/06/09 01:53:18;;;;;;;;;;;15.20;99.90;;;;;;5085863;27;36082;-59
2022/06/09 01:55:47;;;;;;;;;;;15.20;99.90;;;;;;5084647;27;37747;-59
2022/06/09 01:58:16;;;;;;;;;;;15.20;99.90;;;;;;5086624;27;37637;-59
2022/06/09 02:00:44;;;;;;;;;;;15.20;99.90;;;;;;5085418;28;37042;-58
2022/06/09 02:03:13;;;;;;;;;;;15.20;99.90;;;;;;5085995;27;37239;-58
2022/06/09 02:05:43;;;;;;;;;;;15.20;99.90;;;;;;5082879;27;37321;-59
2022/06/09 02:08:14;;;;;;;;;;;15.20;99.90;;;;;;5084922;27;37212;-58
2022/06/09 02:10:43;;;;;;;;;;;15.20;99.90;;;;;;5084345;27;36218;-59
2022/06/09 02:13:13;;;;;;;;;;;15.20;99.90;;;;;;5085319;27;38271;-59
2022/06/09 02:15:41;;;;;;;;;;;15.20;99.90;;;;;;5084652;27;37319;-59
2022/06/09 02:18:10;;;;;;;;;;;15.10;99.90;;;;;;5084609;28;36574;-58
2022/06/09 02:20:42;;;;;;;;;;;15.10;99.90;;;;;;5085018;27;36258;-59
2022/06/09 02:23:10;;;;;;;;;;;15.10;99.90;;;;;;5085225;27;39084;-59
2022/06/09 02:25:38;;;;;;;;;;;15.10;99.90;;;;;;5089307;27;37284;-59
2022/06/09 02:28:06;;;;;;;;;;;15.10;99.90;;;;;;5088010;27;37522;-58
2022/06/09 02:30:33;;;;;;;;;;;15.10;99.90;;;;;;5089070;27;36308;-59
2022/06/09 02:33:00;;;;;;;;;;;15.10;99.90;;;;;;5089081;27;37989;-59
2022/06/09 02:35:27;;;;;;;;;;;15.10;99.90;;;;;;5086801;27;37359;-59
2022/06/09 02:37:54;;;;;;;;;;;15.10;99.90;;;;;;5088866;27;37836;-58
2022/06/09 02:40:23;;;;;;;;;;;15.00;99.90;;;;;;5088768;27;37461;-58
2022/06/09 02:42:50;;;;;;;;;;;15.00;99.90;;;;;;5088115;27;36700;-58
2022/06/09 02:45:17;;;;;;;;;;;15.00;99.90;;;;;;5088871;27;38405;-58
2022/06/09 02:47:45;;;;;;;;;;;15.00;99.90;;;;;;5087576;27;37222;-58
2022/06/09 02:50:12;;;;;;;;;;;15.00;99.90;;;;;;5088099;27;37262;-58
2022/06/09 02:52:41;;;;;;;;;;;15.00;99.90;;;;;;5087792;27;39123;-59
2022/06/09 02:55:08;;;;;;;;;;;15.00;99.90;;;;;;5086726;27;37707;-58
2022/06/09 02:57:37;;;;;;;;;;;15.00;99.90;;;;;;5087548;27;36910;-59
2022/06/09 03:00:05;;;;;;;;;;;15.00;99.90;;;;;;5087114;27;37064;-59
2022/06/09 03:02:32;;;;;;;;;;;15.00;99.90;;;;;;5087609;27;37909;-58
2022/06/09 03:05:00;;;;;;;;;;;15.00;99.90;;;;;;5086324;28;36999;-58
2022/06/09 03:07:27;;;;;;;;;;;15.00;99.90;;;;;;5087101;27;36851;-58
2022/06/09 03:09:54;;;;;;;;;;;15.00;99.90;;;;;;5087148;27;36186;-58
2022/06/09 03:12:21;;;;;;;;;;;15.00;99.90;;;;;;5086716;27;37719;-59
2022/06/09 03:14:49;;;;;;;;;;;15.00;99.90;;;;;;5088241;27;36321;-58
2022/06/09 03:17:16;;;;;;;;;;;15.00;99.90;;;;;;5086614;27;36797;-59
2022/06/09 03:19:43;;;;;;;;;;;15.00;99.90;;;;;;5088909;27;36527;-59
2022/06/09 03:22:10;;;;;;;;;;;15.00;99.90;;;;;;5086492;27;36545;-59
2022/06/09 03:24:37;;;;;;;;;;;15.00;99.90;;;;;;5088775;27;38604;-58
2022/06/09 03:27:04;;;;;;;;;;;15.00;99.90;;;;;;5085741;27;35980;-58
2022/06/09 03:29:32;;;;;;;;;;;15.00;99.90;;;;;;5088063;27;36937;-58
2022/06/09 03:32:01;;;;;;;;;;;15.00;99.90;;;;;;5087453;27;38235;-58
2022/06/09 03:34:28;;;;;;;;;;;15.00;99.90;;;;;;5086548;27;38668;-58
2022/06/09 03:36:56;;;;;;;;;;;15.00;99.90;;;;;;5086339;27;36064;-58
2022/06/09 03:39:23;;;;;;;;;;;15.00;99.90;;;;;;5087440;27;35621;-59
2022/06/09 03:41:51;;;;;;;;;;;15.10;99.90;;;;;;5085473;27;37573;-58
2022/06/09 03:44:19;;;;;;;;;;;15.00;99.90;;;;;;5086557;27;39011;-59
2022/06/09 03:46:46;;;;;;;;;;;15.00;99.90;;;;;;5086876;27;35951;-59
2022/06/09 03:49:15;;;;;;;;;;;15.00;99.90;;;;;;5086940;27;36313;-59
2022/06/09 03:51:42;;;;;;;;;;;15.00;99.90;;;;;;5085979;27;37891;-59
2022/06/09 03:54:09;;;;;;;;;;;15.00;99.90;;;;;;5087860;27;36655;-58
2022/06/09 03:56:36;;;;;;;;;;;15.00;99.90;;;;;;5086553;27;38417;-58
2022/06/09 03:59:03;;;;;;;;;;;15.00;99.90;;;;;;5087153;28;36239;-59
2022/06/09 04:01:30;;;;;;;;;;;15.00;99.90;;;;;;5087306;27;38892;-59
2022/06/09 04:03:57;;;;;;;;;;;15.00;99.90;;;;;;5086487;27;37910;-59
2022/06/09 04:06:26;;;;;;;;;;;15.00;99.90;;;;;;5086994;27;36697;-58
2022/06/09 04:08:53;;;;;;;;;;;15.00;99.90;;;;;;5087856;27;36303;-58
2022/06/09 04:11:21;;;;;;;;;;;15.00;99.90;;;;;;5086317;27;38393;-58
2022/06/09 04:13:49;;;;;;;;;;;15.00;99.90;;;;;;5087444;27;37830;-59
2022/06/09 04:16:20;;;;;;;;;;;15.00;99.90;;;;;;5085808;27;36136;-58
2022/06/09 04:18:47;;;;;;;;;;;15.00;99.90;;;;;;5086186;27;35029;-59
2022/06/09 04:21:14;;;;;;;;;;;15.00;99.90;;;;;;5087392;27;37563;-58
2022/06/09 04:23:42;;;;;;;;;;;15.00;99.90;;;;;;5085519;27;39433;-59
2022/06/09 04:26:10;;;;;;;;;;;15.00;99.90;;;;;;5085883;27;36291;-58
2022/06/09 04:28:37;;;;;;;;;;;15.00;99.90;;;;;;5086565;28;35065;-58
2022/06/09 04:31:05;;;;;;;;;;;15.00;99.90;;;;;;5085550;27;40031;-58
2022/06/09 04:33:32;;;;;;;;;;;15.00;99.90;;;;;;5085432;27;38273;-59
2022/06/09 04:35:59;;;;;;;;;;;15.00;99.90;;;;;;5085046;27;36995;-59
2022/06/09 04:38:26;;;;;;;;;;;15.10;99.90;;;;;;5085819;27;35113;-59
2022/06/09 04:40:54;;;;;;;;;;;15.10;99.90;;;;;;5085935;28;38498;-59
2022/06/09 04:43:22;;;;;;;;;;;15.00;99.90;;;;;;5086536;27;39362;-59
2022/06/09 04:45:49;;;;;;;;;;;15.00;99.90;;;;;;5085687;27;37191;-58
2022/06/09 04:48:16;;;;;;;;;;;15.00;99.90;;;;;;5086275;27;36457;-59
2022/06/09 04:50:43;;;;;;;;;;;15.00;99.90;;;;;;5085999;27;39216;-58
2022/06/09 04:53:10;;;;;;;;;;;15.00;99.90;;;;;;5086561;27;38308;-58
2022/06/09 04:55:38;;;;;;;;;;;15.00;99.90;;;;;;5085128;27;38513;-58
2022/06/09 04:58:07;;;;;;;;;;;15.00;99.90;;;;;;5085982;27;37171;-59
2022/06/09 05:00:33;;;;;;;;;;;15.00;99.90;;;;;;5086146;28;37451;-59
2022/06/09 05:03:01;;;;;;;;;;;15.00;99.90;;;;;;5085565;27;38255;-59
2022/06/09 05:05:29;;;;;;;;;;;15.00;99.90;;;;;;5084315;27;37389;-59
2022/06/09 05:07:57;;;;;;;;;;;15.00;99.90;;;;;;5085156;27;37948;-59
2022/06/09 05:10:25;;;;;;;;;;;15.00;99.90;;;;;;5083547;27;37506;-58
2022/06/09 05:12:52;;;;;;;;;;;15.00;99.90;;;;;;5086299;27;36735;-58
2022/06/09 05:15:22;;;;;;;;;;;15.00;99.90;;;;;;5085307;27;37604;-59
2022/06/09 05:17:50;;;;;;;;;;;15.00;99.90;;;;;;5086103;27;35752;-59
2022/06/09 05:20:18;;;;;;;;;;;15.10;99.90;;;;;;5081570;27;38352;-59
2022/06/09 05:22:45;;;;;;;;;;;15.10;99.90;;;;;;5085626;27;37232;-58
2022/06/09 05:25:13;;;;;;;;;;;15.10;99.90;;;;;;5085489;28;36622;-59
2022/06/09 05:27:40;;;;;;;;;;;15.10;99.90;;;;;;5085208;27;35111;-59
2022/06/09 05:30:08;;;;;;;;;;;15.10;99.90;;;;;;5085254;27;39778;-59
2022/06/09 05:32:37;;;;;;;;;;;15.10;99.90;;;;;;5084296;27;37797;-58
2022/06/09 05:35:04;;;;;;;;;;;15.20;99.90;;;;;;5085514;27;37043;-60
2022/06/09 05:45:42;;;;;;;;;;;15.20;99.90;;;;;;5085414;28;37008;-59
2022/06/09 05:48:10;;;;;;;;;;;15.20;99.90;;;;;;5084688;27;37106;-59
2022/06/09 05:50:37;;;;;;;;;;;15.20;99.90;;;;;;5084146;27;39664;-58
2022/06/09 05:53:04;;;;;;;;;;;15.20;99.90;;;;;;5084444;27;39155;-58
2022/06/09 05:55:31;;;;;;;;;;;15.20;99.90;;;;;;5084754;27;37093;-58
2022/06/09 05:57:58;;;;;;;;;;;15.20;99.90;;;;;;5085244;27;35274;-58
2022/06/09 06:00:25;;;;;;;;;;;15.20;99.90;;;;;;5084248;27;37827;-58
2022/06/09 06:02:53;;;;;;;;;;;15.20;99.90;;;;;;5083756;27;38545;-58
2022/06/09 06:08:06;;;;;;;;;;;15.20;99.90;;;;;;5084954;28;37394;-58
2022/06/09 06:10:34;;;;;;;;;;;15.30;99.90;;;;;;5083603;27;38316;-59
2022/06/09 06:13:01;;;;;;;;;;;15.20;99.90;;;;;;5082688;27;37476;-58
2022/06/09 06:15:29;;;;;;;;;;;15.30;99.90;;;;;;5084580;27;36413;-58
2022/06/09 06:17:56;;;;;;;;;;;15.30;99.90;;;;;;5084691;27;37680;-58
2022/06/09 06:20:25;;;;;;;;;;;15.30;99.90;;;;;;5085667;27;37531;-59
2022/06/09 06:22:52;;;;;;;;;;;15.30;99.90;;;;;;5084482;27;37083;-58
2022/06/09 06:25:19;;;;;;;;;;;15.40;99.90;;;;;;5084732;27;38615;-58
2022/06/09 06:27:46;;;;;;;;;;;15.50;99.90;;;;;;5084238;27;36237;-59
2022/06/09 06:30:13;;;;;;;;;;;15.60;99.90;;;;;;5083547;27;37884;-58
2022/06/09 06:32:40;;;;;;;;;;;15.60;99.90;;;;;;5084927;28;37808;-59
2022/06/09 06:35:08;;;;;;;;;;;15.70;99.90;;;;;;5085150;27;39162;-59
2022/06/09 06:37:36;;;;;;;;;;;15.80;99.90;;;;;;5084226;27;36996;-58
2022/06/09 06:40:04;;;;;;;;;;;15.90;99.90;;;;;;5084591;27;38063;-60
2022/06/09 06:42:31;;;;;;;;;;;15.90;99.90;;;;;;5083727;27;36661;-58
2022/06/09 06:44:58;;;;;;;;;;;16.00;99.90;;;;;;5084859;27;37758;-58
2022/06/09 06:47:25;;;;;;;;;;;16.00;99.90;;;;;;5084016;27;37057;-58
2022/06/09 06:49:52;;;;;;;;;;;16.00;99.90;;;;;;5083192;27;39103;-58
2022/06/09 06:52:19;;;;;;;;;;;16.00;99.90;;;;;;5083401;28;38757;-58
2022/06/09 06:54:48;;;;;;;;;;;16.00;99.90;;;;;;5084201;27;37498;-58
2022/06/09 06:57:15;;;;;;;;;;;16.00;99.90;;;;;;5084357;27;37888;-58
2022/06/09 06:59:42;;;;;;;;;;;16.00;99.90;;;;;;5081058;27;37262;-59
2022/06/09 07:02:11;;;;;;;;;;;16.10;99.90;;;;;;5084073;27;36837;-58
2022/06/09 07:04:38;;;;;;;;;;;16.10;99.90;;;;;;5084186;27;38524;-58
2022/06/09 07:07:05;;;;;;;;;;;16.20;99.90;;;;;;5084802;27;36141;-58
2022/06/09 07:09:32;;;;;;;;;;;16.50;99.90;;;;;;5084821;27;36586;-58
2022/06/09 07:12:00;;;;;;;;;;;16.70;99.90;;;;;;5088917;27;38196;-52
2022/06/09 07:14:28;;;;;;;;;;;16.80;99.90;;;;;;5088207;27;38192;-53
2022/06/09 07:16:55;;;;;;;;;;;16.90;99.90;;;;;;5088369;28;35186;-52
2022/06/09 07:19:22;;;;;;;;;;;16.90;99.90;;;;;;5088598;27;36262;-58
2022/06/09 07:21:49;;;;;;;;;;;17.00;99.90;;;;;;5086373;27;39378;-58
2022/06/09 07:24:16;;;;;;;;;;;17.20;99.90;;;;;;5088897;27;38496;-58
2022/06/09 07:26:43;;;;;;;;;;;17.30;99.90;;;;;;5088635;27;36558;-57
2022/06/09 07:29:12;;;;;;;;;;;17.40;99.90;;;;;;5087774;27;36479;-58
2022/06/09 07:31:39;;;;;;;;;;;17.40;99.90;;;;;;5087482;28;39861;-57
2022/06/09 07:34:06;;;;;;;;;;;17.40;99.90;;;;;;5086939;27;37153;-57
2022/06/09 07:36:34;;;;;;;;;;;17.30;99.90;;;;;;5087458;27;35273;-58
2022/06/09 07:39:01;;;;;;;;;;;17.50;99.90;;;;;;5087210;28;37227;-58
2022/06/09 07:41:28;;;;;;;;;;;17.60;99.90;;;;;;5087351;27;39432;-58
2022/06/09 07:43:55;;;;;;;;;;;17.70;99.90;;;;;;5087562;28;36957;-57
2022/06/09 07:46:23;;;;;;;;;;;17.70;99.90;;;;;;5087389;27;38947;-57
2022/06/09 07:48:51;;;;;;;;;;;17.70;99.90;;;;;;5085834;27;37446;-57
2022/06/09 07:51:18;;;;;;;;;;;17.80;99.90;;;;;;5087757;27;36734;-57
2022/06/09 07:53:45;;;;;;;;;;;17.90;99.90;;;;;;5087857;27;37901;-57
2022/06/09 07:56:12;;;;;;;;;;;18.00;99.90;;;;;;5087702;27;36341;-58
2022/06/09 07:58:39;;;;;;;;;;;18.10;99.90;;;;;;5087748;27;38024;-57
2022/06/09 08:01:06;;;;;;;;;;;18.10;99.90;;;;;;5087691;27;38360;-57
2022/06/09 08:03:35;;;;;;;;;;;18.20;99.90;;;;;;5088362;27;37933;-58
2022/06/09 08:06:02;;;;;;;;;;;18.20;99.90;;;;;;5089777;27;36780;-58
2022/06/09 08:08:29;;;;;;;;;;;18.20;99.90;;;;;;5087606;27;38310;-57
2022/06/09 08:10:59;;;;;;;;;;;18.20;99.90;;;;;;5088314;27;38250;-57
2022/06/09 08:13:26;;;;;;;;;;;18.30;99.90;;;;;;5087423;27;37276;-57
2022/06/09 08:15:54;;;;;;;;;;;18.30;99.90;;;;;;5087141;28;35419;-57
2022/06/09 08:18:21;;;;;;;;;;;18.30;99.90;;;;;;5087384;27;40806;-57
2022/06/09 08:20:50;;;;;;;;;;;18.30;99.90;;;;;;5087389;27;37910;-57
2022/06/09 08:23:18;;;;;;;;;;;18.30;99.90;;;;;;5087060;27;37646;-58
2022/06/09 08:25:46;;;;;;;;;;;18.40;99.90;;;;;;5087356;27;37365;-57
2022/06/09 08:28:17;;;;;;;;;;;18.50;99.90;;;;;;5086871;27;38566;-57
2022/06/09 08:30:46;;;;;;;;;;;18.50;99.90;;;;;;5086371;28;38319;-58
2022/06/09 08:33:13;;;;;;;;;;;18.50;99.90;;;;;;5084204;27;38024;-58
2022/06/09 08:35:40;;;;;;;;;;;18.60;99.90;;;;;;5086282;27;37145;-57
2022/06/09 08:38:09;;;;;;;;;;;18.80;99.90;;;;;;5086521;27;37885;-57
2022/06/09 08:40:42;;;;;;;;;;;18.90;99.90;;;;;;5086127;27;37663;-58
2022/06/09 08:43:14;;;;;;;;;;;19.10;99.90;;;;;;5086097;27;37424;-58
2022/06/09 08:45:42;;;;;;;;;;;19.30;99.90;;;;;;5085351;28;36059;-58
2022/06/09 08:48:13;;;;;;;;;;;19.30;99.90;;;;;;5084576;27;37716;-58
2022/06/09 08:50:42;;;;;;;;;;;19.40;99.90;;;;;;5084999;27;37633;-57
2022/06/09 08:53:13;;;;;;;;;;;19.40;99.90;;;;;;5085403;27;39157;-57
2022/06/09 08:55:43;;;;;;;;;;;19.30;99.90;;;;;;5085704;27;36962;-56
2022/06/09 08:58:12;;;;;;;;;;;19.30;99.90;;;;;;5085736;27;37697;-57
2022/06/09 09:00:41;;;;;;;;;;;19.20;99.90;;;;;;5084891;27;39706;-58
2022/06/09 09:03:13;;;;;;;;;;;19.20;99.90;;;;;;5084763;27;37102;-57
2022/06/09 09:05:41;;;;;;;;;;;19.20;99.90;;;;;;5084380;27;36624;-57
2022/06/09 09:08:09;;;;;;;;;;;19.10;99.90;;;;;;5084709;27;38266;-57
2022/06/09 09:10:45;;;;;;;;;;;19.20;99.90;;;;;;5085590;27;39333;-57
2022/06/09 09:13:27;;;;;;;;;;;19.30;99.90;;;;;;5086151;27;37867;-58
2022/06/09 09:15:55;;;;;;;;;;;19.30;99.90;;;;;;5072551;27;36077;-57
2022/06/09 09:18:30;;;;;;;;;;;19.40;99.90;;;;;;5083469;27;36474;-58
2022/06/09 09:21:04;;;;;;;;;;;19.50;99.90;;;;;;5085264;27;38089;-57
2022/06/09 09:23:33;;;;;;;;;;;19.70;99.90;;;;;;5084839;27;38090;-57
2022/06/09 09:26:08;;;;;;;;;;;19.70;99.90;;;;;;5085190;27;36164;-57
2022/06/09 09:28:43;;;;;;;;;;;19.80;99.90;;;;;;5084634;27;39183;-57
2022/06/09 09:31:18;;;;;;;;;;;20.00;99.90;;;;;;5084471;27;39337;-58
2022/06/09 09:33:45;;;;;;;;;;;20.20;99.90;;;;;;5083618;27;38212;-58
2022/06/09 09:36:16;;;;;;;;;;;20.40;99.90;;;;;;5084983;27;37405;-58
2022/06/09 09:38:48;;;;;;;;;;;20.50;99.90;;;;;;5085975;27;36597;-58
2022/06/09 09:41:27;;;;;;;;;;;20.50;99.90;;;;;;5085474;27;36695;-58
2022/06/09 09:43:55;;;;;;;;;;;20.60;99.90;;;;;;5084860;27;37836;-58
2022/06/09 09:46:24;;;;;;;;;;;20.70;99.90;;;;;;5085116;28;36453;-58
2022/06/09 09:48:52;;;;;;;;;;;20.80;99.90;;;;;;5084937;27;37829;-57
2022/06/09 09:51:31;;;;;;;;;;;20.90;99.90;;;;;;5083662;27;37975;-58
2022/06/09 09:54:07;;;;;;;;;;;20.70;99.90;;;;;;5084454;27;29060;-58
2022/06/09 09:56:36;;;;;;;;;;;20.50;99.90;;;;;;5085179;27;37505;-58
2022/06/09 09:59:04;;;;;;;;;;;20.50;99.90;;;;;;5085503;27;38028;-58
2022/06/09 10:08:35;;;;;;;;;;;20.50;99.90;;;;;;5085808;27;37812;-57
2022/06/09 10:10:08;;;;;;;;;;;20.90;99.30;;;;;;5083702;28;39004;-56
2022/06/09 10:12:37;;;;;;;;;;;20.90;99.90;;;;;;5085434;27;38992;-57
2022/06/09 10:15:05;;;;;;;;;;;21.00;99.90;;;;;;5084850;27;38905;-57
2022/06/09 10:17:38;;;;;;;;;;;21.10;99.90;;;;;;5085495;28;36119;-57
2022/06/09 10:20:07;;;;;;;;;;;21.20;99.80;;;;;;5085862;27;38802;-56
2022/06/09 10:22:35;;;;;;;;;;;21.20;98.50;;;;;;5085777;27;38522;-56
2022/06/09 10:25:05;;;;;;;;;;;21.20;99.70;;;;;;5084868;27;38291;-56
2022/06/09 10:27:35;;;;;;;;;;;21.10;97.00;;;;;;5086031;27;39416;-57
2022/06/09 10:30:05;;;;;;;;;;;21.00;98.10;;;;;;5084442;28;36343;-57
2022/06/09 10:32:37;;;;;;;;;;;21.00;98.30;;;;;;5083010;27;38401;-57
2022/06/09 10:35:08;;;;;;;;;;;21.00;98.50;;;;;;5085419;27;37523;-57
2022/06/09 10:37:38;;;;;;;;;;;20.90;97.20;;;;;;5083610;27;37758;-56
2022/06/09 10:40:07;;;;;;;;;;;20.80;97.80;;;;;;5083600;27;38506;-56
2022/06/09 10:42:39;;;;;;;;;;;20.70;97.20;;;;;;5083667;27;38211;-56
2022/06/09 10:45:20;;;;;;;;;;;20.70;99.40;;;;;;5087089;27;38372;-56
2022/06/09 10:56:14;;;;;;;;;;;21.00;99.40;;;;;;5087693;28;37113;-56
2022/06/09 10:58:45;;;;;;;;;;;21.20;97.60;;;;;;5088015;27;37142;-56
2022/06/09 11:01:18;;;;;;;;;;;21.20;98.90;;;;;;5087287;27;39220;-57
2022/06/09 11:03:48;;;;;;;;;;;21.20;97.40;;;;;;5087547;27;37788;-57
2022/06/09 11:06:22;;;;;;;;;;;21.10;97.10;;;;;;5088336;27;36178;-57
2022/06/09 11:08:54;;;;;;;;;;;21.10;96.20;;;;;;5087997;27;36226;-56
2022/06/09 11:11:24;;;;;;;;;;;21.20;98.10;;;;;;5088858;27;37524;-56
2022/06/09 11:13:58;;;;;;;;;;;21.30;97.40;;;;;;5088779;27;37959;-60
2022/06/09 11:16:31;;;;;;;;;;;21.50;96.80;;;;;;5088956;27;37466;-57
2022/06/09 11:19:10;;;;;;;;;;;21.60;97.40;;;;;;5088416;27;36261;-57
2022/06/09 11:21:40;;;;;;;;;;;21.60;96.10;;;;;;5087474;27;39545;-57
2022/06/09 11:24:15;;;;;;;;;;;21.50;94.80;;;;;;5087444;28;36659;-57
2022/06/09 11:26:47;;;;;;;;;;;21.50;95.70;;;;;;5088292;27;35964;-57
2022/06/09 11:29:23;;;;;;;;;;;21.60;96.50;;;;;;5087301;27;37415;-47
2022/06/09 11:31:58;;;;;;;;;;;21.60;96.10;;;;;;5086321;27;36718;-48
2022/06/09 11:34:38;;;;;;;;;;;21.60;96.10;;;;;;5087472;27;36637;-49
2022/06/09 11:37:11;;;;;;;;;;;21.70;96.70;;;;;;5087813;27;37894;-49
2022/06/09 11:39:43;;;;;;;;;;;21.60;94.80;;;;;;5087374;27;36554;-50
2022/06/09 11:42:15;;;;;;;;;;;21.30;95.00;;;;;;5088005;27;38667;-48
2022/06/09 11:44:43;;;;;;;;;;;21.00;95.30;;;;;;5087673;27;38716;-48
2022/06/09 11:47:13;;;;;;;;;;;20.80;96.50;;;;;;5087691;27;37723;-47
2022/06/09 11:49:42;;;;;;;;;;;20.80;96.00;;;;;;5088219;28;37098;-47
2022/06/09 11:52:11;;;;;;;;;;;20.80;96.30;;;;;;5087177;27;38024;-48
2022/06/09 11:54:43;;;;;;;;;;;20.70;95.80;;;;;;5086541;27;38636;-50
2022/06/09 11:57:21;;;;;;;;;;;20.70;94.80;;;;;;5086700;27;37091;-49
2022/06/09 11:59:53;;;;;;;;;;;20.60;96.10;;;;;;5086537;27;38793;-49
2022/06/09 12:02:29;;;;;;;;;;;20.50;96.30;;;;;;5086818;27;38725;-47
2022/06/09 12:05:06;;;;;;;;;;;20.50;96.20;;;;;;5087015;27;38278;-50
2022/06/09 12:07:53;;;;;;;;;;;20.50;97.50;;;;;;5087659;28;36087;-49
2022/06/09 12:10:28;;;;;;;;;;;20.60;96.30;;;;;;5081774;28;37684;-50
2022/06/09 12:13:13;;;;;;;;;;;20.60;95.30;;;;;;5086390;28;38614;-48
2022/06/09 12:15:48;;;;;;;;;;;20.60;96.10;;;;;;5087242;28;38439;-51
2022/06/09 12:18:34;;;;;;;;;;;20.60;96.80;;;;;;5086366;27;36564;-49
2022/06/09 12:21:04;;;;;;;;;;;20.70;96.60;;;;;;5086168;27;37568;-50
2022/06/09 12:23:33;;;;;;;;;;;20.70;97.20;;;;;;5085780;27;38423;-50
2022/06/09 12:26:19;;;;;;;;;;;20.70;96.70;;;;;;5086853;28;37610;-46
2022/06/09 12:28:47;;;;;;;;;;;20.80;97.70;;;;;;5086456;27;35967;-50
2022/06/09 12:31:15;;;;;;;;;;;20.80;97.30;;;;;;5086264;27;35123;-50
2022/06/09 12:33:48;;;;;;;;;;;20.80;96.30;;;;;;5085329;27;37824;-50
2022/06/09 12:36:34;;;;;;;;;;;20.70;96.50;;;;;;5087217;27;39923;-50
2022/06/09 12:39:04;;;;;;;;;;;20.60;96.40;;;;;;5085993;28;37287;-50
2022/06/09 12:41:34;;;;;;;;;;;20.50;97.70;;;;;;5085134;27;37151;-51
2022/06/09 12:44:06;;;;;;;;;;;20.60;97.50;;;;;;5086012;27;37510;-50
2022/06/09 12:46:33;;;;;;;;;;;20.60;97.90;;;;;;5084307;27;38295;-47
2022/06/09 12:49:14;;;;;;;;;;;20.70;97.10;;;;;;5085732;27;37157;-49
2022/06/09 12:51:41;;;;;;;;;;;20.70;97.60;;;;;;5085390;27;36300;-50
2022/06/09 12:54:22;;;;;;;;;;;20.70;98.00;;;;;;5086063;27;37920;-51
2022/06/09 12:56:55;;;;;;;;;;;20.80;98.90;;;;;;5085992;27;37749;-50
2022/06/09 12:59:25;;;;;;;;;;;20.70;96.70;;;;;;5085662;27;38657;-50
2022/06/09 13:02:00;;;;;;;;;;;20.60;97.10;;;;;;5086375;27;36051;-50
2022/06/09 13:04:30;;;;;;;;;;;20.60;97.90;;;;;;5085097;28;38105;-49
2022/06/09 13:07:00;;;;;;;;;;;20.60;98.30;;;;;;5085279;27;37759;-51
2022/06/09 13:09:28;;;;;;;;;;;20.60;97.40;;;;;;5085163;27;39104;-50
2022/06/09 13:14:42;;;;;;;;;;;20.40;98.20;;;;;;5085869;28;39347;-50
2022/06/09 13:17:09;;;;;;;;;;;20.50;97.60;;;;;;5085490;27;36613;-50
2022/06/09 13:19:38;;;;;;;;;;;20.50;96.80;;;;;;5085821;27;37194;-48
2022/06/09 13:22:07;;;;;;;;;;;20.40;97.10;;;;;;5085275;27;35204;-51
2022/06/09 13:24:35;;;;;;;;;;;20.50;97.50;;;;;;5086711;27;36576;-50
2022/06/09 13:27:04;;;;;;;;;;;20.50;97.90;;;;;;5084564;27;38078;-49
2022/06/09 13:29:36;;;;;;;;;;;20.60;97.80;;;;;;5085584;27;36804;-48
2022/06/09 13:32:12;;;;;;;;;;;20.60;98.20;;;;;;5085047;27;36178;-50
2022/06/09 13:34:43;;;;;;;;;;;20.60;98.50;;;;;;5085302;27;38221;-50
2022/06/09 13:37:12;;;;;;;;;;;20.60;96.60;;;;;;5084711;27;37838;-50
2022/06/09 13:39:47;;;;;;;;;;;20.60;97.10;;;;;;5086270;27;37521;-50
2022/06/09 13:42:22;;;;;;;;;;;20.60;97.20;;;;;;5083964;27;36159;-51
2022/06/09 13:44:52;;;;;;;;;;;20.60;96.90;;;;;;5084423;27;37187;-50
2022/06/09 13:47:21;;;;;;;;;;;20.50;96.70;;;;;;5084205;27;38074;-50
2022/06/09 13:50:00;;;;;;;;;;;20.50;95.80;;;;;;5084545;27;38578;-51
2022/06/09 13:52:29;;;;;;;;;;;20.40;95.80;;;;;;5085066;27;35128;-49
2022/06/09 13:54:57;;;;;;;;;;;20.40;95.80;;;;;;5083114;27;37518;-46
2022/06/09 13:57:25;;;;;;;;;;;20.40;96.40;;;;;;5084756;27;36629;-50
2022/06/09 13:59:53;;;;;;;;;;;20.30;96.80;;;;;;5085147;28;36004;-47
2022/06/09 14:02:21;;;;;;;;;;;20.40;97.00;;;;;;5086264;27;36647;-47
2022/06/09 14:04:50;;;;;;;;;;;20.30;97.20;;;;;;5085824;27;38928;-47
2022/06/09 14:07:18;;;;;;;;;;;20.40;97.50;;;;;;5086718;27;37874;-46
2022/06/09 14:09:47;;;;;;;;;;;20.40;96.50;;;;;;5085329;28;39257;-48
2022/06/09 14:12:14;;;;;;;;;;;20.40;97.20;;;;;;5086450;27;36643;-46
2022/06/09 14:14:42;;;;;;;;;;;20.50;97.50;;;;;;5084610;27;37686;-50
2022/06/09 14:17:09;;;;;;;;;;;20.40;96.70;;;;;;5086513;28;38239;-48
2022/06/09 14:19:36;;;;;;;;;;;20.40;95.80;;;;;;5088767;27;37359;-50
2022/06/09 14:22:05;;;;;;;;;;;20.30;96.50;;;;;;5089413;27;36483;-50
2022/06/09 14:24:32;;;;;;;;;;;20.20;96.40;;;;;;5087575;27;38224;-50
2022/06/09 14:26:59;;;;;;;;;;;20.20;97.00;;;;;;5087589;27;39390;-57
2022/06/09 14:29:27;;;;;;;;;;;20.20;97.20;;;;;;5083874;27;37557;-56
2022/06/09 14:31:54;;;;;;;;;;;20.20;96.40;;;;;;5087325;28;36321;-57
2022/06/09 14:34:21;;;;;;;;;;;20.10;96.30;;;;;;5088041;27;38387;-57
2022/06/09 14:36:49;;;;;;;;;;;20.10;96.90;;;;;;5089588;27;39068;-57
2022/06/09 14:39:18;;;;;;;;;;;20.10;96.00;;;;;;5088741;27;36164;-56
2022/06/09 14:41:45;;;;;;;;;;;20.00;95.80;;;;;;5089107;27;37788;-57
2022/06/09 14:44:13;;;;;;;;;;;19.90;94.90;;;;;;5088012;28;37333;-50
2022/06/09 14:46:41;;;;;;;;;;;19.80;95.30;;;;;;5088829;27;38616;-48
2022/06/09 14:49:12;;;;;;;;;;;19.80;95.00;;;;;;5084988;27;37037;-56
2022/06/09 14:51:39;;;;;;;;;;;19.70;95.00;;;;;;5086790;27;36652;-57
2022/06/09 14:54:06;;;;;;;;;;;19.60;93.90;;;;;;5088126;27;38092;-56
2022/06/09 14:56:36;;;;;;;;;;;19.50;96.00;;;;;;5087918;27;37962;-56